Meadows Of Dan, Virginia
Current Conditions -  °F | °C
As of 10:15 PM on Saturday 25 Oct 2014 (Local Time) from KMWK Reporting Station
Clear Clear  
Wind Chill: 15°   Ceiling: Unl
Heat Index: 15°   Visibility: 10mi
Dew Point: 10°   Wind: 0mph
Humidity: 71%   Direction: NA
Pressure: 29.94"   Gusts: NA
Location:  36.74°N, 80.39°W
Report Text: KMWK 260215Z AUTO 00000KT 10SM CLR 15/10 A2994 RMK AO2 T01470095
Loading
Personal Weather Stations






























Interactive Weather Map
Tropical Storm Tracking
New forecast layout! Learn more

10-Day Weather Forecast

Advertisements
Track Severe Weather on mobile